Sentinel Butte, North Dakota
Current Conditions -  °F | °C
As of 7:55 PM on Monday 22 Dec 2014 (Local Time) from K20U Reporting Station
Light Snow Light Snow  
Wind Chill:   Ceiling: 300
Heat Index: 23°   Visibility: 1.5mi
Dew Point: 23°   Wind: 21mph
Humidity: 100%   Direction: 320°NW
Pressure: 29.84"   Gusts: 26mph
Location:  46.92°N, 103.84°W
Report Text: K20U 230255Z AUTO 32018G23KT 1 1/2SM -SN BKN003 OVC027 M05/M05 A2984 RMK AO2 P0038
Loading
Personal Weather Stations






























Interactive Weather Map New forecast layout! Learn more

10-Day Weather Forecast

Advertisements
Track Severe Weather on mobile